Time;durP1;ratioP1;P1;durP2;ratioP2;P2;SDS_P1;SDS_P2;PMS_P1;PMS_P2;Temp;Humidity;BMP_temperature;BMP_pressure;BME280_temperature;BME280_humidity;BME280_pressure;Samples;Min_cycle;Max_cycle;Signal;HPM_P1;HPM_P2
2022/05/16 00:02:10;;;;;;;;;4.00;4.00;;;;;22.57;60.19;100853.34;5062465;28;45337;-89
2022/05/16 00:04:38;;;;;;;;;5.00;5.00;;;;;22.97;60.64;100916.59;5043029;28;45394;-90
2022/05/16 00:07:03;;;;;;;;;6.33;4.67;;;;;22.49;61.21;100846.78;5061220;28;46566;-89
2022/05/16 00:09:29;;;;;;;;;3.00;3.00;;;;;22.92;60.93;100920.72;5079525;28;45375;-90
2022/05/16 00:11:54;;;;;;;;;7.33;7.33;;;;;22.61;61.32;100892.84;5080049;28;45437;-90
2022/05/16 00:14:20;;;;;;;;;7.00;5.00;;;;;22.73;61.11;100924.28;5062363;28;45579;-90
2022/05/16 00:16:45;;;;;;;;;7.33;6.00;;;;;22.79;61.49;100921.03;5079319;28;46046;-90
2022/05/16 00:19:10;;;;;;;;;7.67;7.67;;;;;22.86;62.64;100933.03;5079584;28;47429;-90
2022/05/16 00:21:37;;;;;;;;;11.00;8.00;;;;;22.30;75.28;100860.34;5059308;28;45398;-90
2022/05/16 00:24:02;;;;;;;;;6.00;6.00;;;;;22.68;75.53;100924.72;5059949;28;45377;-91
2022/05/16 00:26:28;;;;;;;;;7.33;6.33;;;;;22.35;75.15;100874.34;5059251;28;45412;-90
2022/05/16 00:28:53;;;;;;;;;7.00;7.00;;;;;22.42;73.84;100880.94;5064837;28;45373;-90
2022/05/16 00:31:18;;;;;;;;;6.33;6.33;;;;;22.57;72.29;100910.41;5069144;28;45470;-90
2022/05/16 00:33:44;;;;;;;;;6.00;6.00;;;;;22.51;72.22;100917.28;5059242;28;45568;-90
2022/05/16 00:36:09;;;;;;;;;6.00;6.00;;;;;22.43;71.07;100887.22;5059256;28;46045;-91
2022/05/16 00:38:35;;;;;;;;;5.33;5.33;;;;;22.21;71.58;100859.31;5059083;28;45481;-90
2022/05/16 00:41:02;;;;;;;;;4.33;4.00;;;;;22.47;71.54;100919.41;5041286;28;45472;-90
2022/05/16 00:43:48;;;;;;;;;8.67;5.33;;;;;22.43;70.15;100922.53;5059294;28;45519;-90
2022/05/16 00:46:16;;;;;;;;;4.00;4.00;;;;;22.21;69.31;100900.03;5059222;28;45409;-90
2022/05/16 00:48:42;;;;;;;;;5.00;4.33;;;;;22.34;69.04;100905.25;5063123;28;45318;-90
2022/05/16 00:51:14;;;;;;;;;3.00;2.00;;;;;22.22;68.93;100901.78;5079094;28;45507;-90
2022/05/16 00:53:41;;;;;;;;;2.00;2.00;;;;;22.17;68.22;100909.41;5079646;28;45428;-90
2022/05/16 00:56:07;;;;;;;;;2.67;2.67;;;;;21.94;67.77;100857.22;5079034;28;45858;-90
2022/05/16 00:58:36;;;;;;;;;7.00;4.00;;;;;22.18;67.21;100899.44;5079249;28;45517;-90
2022/05/16 01:01:01;;;;;;;;;4.67;3.00;;;;;22.16;67.24;100888.72;5073394;28;45758;-90
2022/05/16 01:06:10;;;;;;;;;3.00;3.00;;;;;21.83;68.30;100830.19;5058680;28;45524;-90
2022/05/16 01:08:39;;;;;;;;;2.00;2.00;;;;;21.98;67.72;100852.38;5042750;28;45405;-90
2022/05/16 01:11:13;;;;;;;;;3.00;3.00;;;;;22.14;67.57;100883.41;5052890;28;45487;-90
2022/05/16 01:13:39;;;;;;;;;3.00;3.00;;;;;22.06;66.79;100864.25;5041092;28;45467;-90
2022/05/16 01:16:05;;;;;;;;;6.00;4.00;;;;;21.86;66.08;100841.63;5075384;28;45488;-90
2022/05/16 01:18:31;;;;;;;;;2.67;2.67;;;;;21.62;65.52;100822.97;5060786;28;45488;-90
2022/05/16 01:21:14;;;;;;;;;2.33;2.33;;;;;21.99;64.71;100894.81;5064185;28;45471;-90
2022/05/16 01:23:47;;;;;;;;;4.00;3.00;;;;;21.96;65.48;100885.09;5087423;28;45329;-89
2022/05/16 01:26:17;;;;;;;;;1.67;1.67;;;;;21.86;65.13;100885.03;5067471;28;45430;-91
2022/05/16 01:28:43;;;;;;;;;3.00;2.00;;;;;21.90;65.37;100899.19;5060075;28;45361;-91
2022/05/16 01:31:08;;;;;;;;;5.33;3.00;;;;;21.59;63.96;100863.09;5078454;28;45322;-90
2022/05/16 01:33:34;;;;;;;;;2.33;2.33;;;;;21.58;63.78;100859.50;5048661;28;45414;-90
2022/05/16 01:35:59;;;;;;;;;5.67;4.67;;;;;21.44;64.34;100840.88;5051303;28;46277;-90
2022/05/16 01:38:26;;;;;;;;;2.67;2.67;;;;;21.68;64.28;100898.41;5058196;28;45385;-90
2022/05/16 01:41:02;;;;;;;;;1.67;1.67;;;;;21.31;63.70;100864.63;5072098;28;45251;-90
2022/05/16 01:43:34;;;;;;;;;5.00;3.00;;;;;21.32;64.90;100882.59;5060609;28;45555;-90
2022/05/16 01:45:59;;;;;;;;;5.67;3.00;;;;;21.46;64.52;100898.56;5058882;28;46083;-90
2022/05/16 01:48:29;;;;;;;;;3.00;1.67;;;;;21.39;64.31;100879.22;5061030;28;45226;-89
2022/05/16 01:50:58;;;;;;;;;2.67;2.67;;;;;21.52;64.05;100906.16;5076279;28;45723;-89
2022/05/16 01:53:23;;;;;;;;;3.33;2.33;;;;;21.38;64.30;100882.06;5058566;28;45465;-89
2022/05/16 01:55:48;;;;;;;;;2.33;1.67;;;;;21.37;64.20;100877.63;5043870;28;47007;-90
2022/05/16 01:58:14;;;;;;;;;4.00;4.00;;;;;21.50;64.48;100916.28;5058014;28;45553;-89
2022/05/16 02:00:39;;;;;;;;;4.00;4.00;;;;;21.45;64.48;100922.09;5058093;28;45379;-88
2022/05/16 02:03:08;;;;;;;;;3.67;3.67;;;;;21.32;64.91;100907.00;5058073;28;45450;-89
2022/05/16 02:05:34;;;;;;;;;3.33;3.33;;;;;21.44;65.24;100927.66;5058871;28;45473;-89
2022/05/16 02:07:59;;;;;;;;;5.00;4.67;;;;;21.40;64.83;100918.06;5057211;28;45405;-89
2022/05/16 02:10:26;;;;;;;;;4.00;4.00;;;;;21.41;64.67;100934.22;5038881;28;45540;-89
2022/05/16 02:12:56;;;;;;;;;4.00;3.00;;;;;21.35;65.05;100925.72;5055487;28;45546;-90
2022/05/16 02:15:24;;;;;;;;;4.67;4.67;;;;;21.44;64.57;100928.50;5061412;28;45413;-89
2022/05/16 02:17:49;;;;;;;;;6.33;4.67;;;;;21.35;64.26;100906.72;5056893;28;45512;-89
2022/05/16 02:20:16;;;;;;;;;4.00;4.00;;;;;21.42;64.90;100922.38;5055386;28;45588;-89
2022/05/16 02:25:26;;;;;;;;;4.33;4.00;;;;;21.16;64.27;100883.91;5057469;28;45911;-89
2022/05/16 02:27:52;;;;;;;;;2.33;2.33;;;;;21.32;64.49;100899.72;5057937;28;45374;-90
2022/05/16 02:30:20;;;;;;;;;6.67;4.67;;;;;21.34;64.47;100899.59;5077701;28;45419;-90
2022/05/16 02:32:46;;;;;;;;;6.00;5.00;;;;;21.46;64.55;100922.97;5059375;28;45423;-90
2022/05/16 02:35:12;;;;;;;;;6.00;4.00;;;;;21.49;64.09;100923.56;5064000;28;46164;-90
2022/05/16 02:37:37;;;;;;;;;7.00;6.00;;;;;21.02;64.45;100863.41;5077434;28;45393;-90
2022/05/16 02:40:05;;;;;;;;;4.67;4.67;;;;;21.24;64.46;100894.13;5064187;28;45638;-90
2022/05/16 02:42:30;;;;;;;;;9.67;7.33;;;;;20.97;64.12;100846.69;5039118;28;45516;-91
2022/05/16 02:44:56;;;;;;;;;6.00;4.33;;;;;21.10;64.22;100870.06;5038873;28;47000;-89
2022/05/16 02:47:23;;;;;;;;;6.33;6.00;;;;;21.54;64.67;100938.56;5076715;28;45389;-90
2022/05/16 02:49:49;;;;;;;;;6.00;6.00;;;;;21.52;64.05;100941.44;5064190;28;45358;-90
2022/05/16 02:52:15;;;;;;;;;5.00;5.00;;;;;21.31;64.00;100903.44;5077098;28;45642;-90
2022/05/16 02:54:41;;;;;;;;;6.67;6.33;;;;;21.30;63.88;100901.69;5077205;28;46253;-90
2022/05/16 02:57:07;;;;;;;;;6.00;4.50;;;;;21.25;63.99;100893.09;5076391;28;45591;-90
2022/05/16 02:59:35;;;;;;;;;8.00;6.33;;;;;21.60;63.80;100952.44;5077239;27;45499;-90
2022/05/16 03:02:03;;;;;;;;;6.67;5.00;;;;;21.62;63.81;100953.19;5053693;28;45500;-90
2022/05/16 03:04:28;;;;;;;;;6.00;5.00;;;;;21.23;63.83;100900.50;5057778;28;45474;-90
2022/05/16 03:06:54;;;;;;;;;5.00;5.00;;;;;21.62;63.73;100957.75;5038480;28;45410;-90
2022/05/16 03:09:21;;;;;;;;;4.33;4.33;;;;;21.63;64.29;100956.75;5038714;28;45485;-91
2022/05/16 03:11:47;;;;;;;;;2.33;2.33;;;;;21.57;63.99;100943.75;5057143;28;45437;-90
2022/05/16 03:14:12;;;;;;;;;8.00;7.00;;;;;21.38;63.53;100903.78;5038055;28;47314;-90
2022/05/16 03:16:38;;;;;;;;;7.67;6.33;;;;;21.63;63.73;100940.47;5038051;28;45431;-90
2022/05/16 03:19:05;;;;;;;;;3.67;3.67;;;;;21.37;63.70;100900.16;5038372;28;45430;-90
2022/05/16 03:21:31;;;;;;;;;5.67;5.67;;;;;21.70;63.22;100957.94;5049376;28;45591;-90
2022/05/16 03:23:57;;;;;;;;;10.00;7.67;;;;;21.47;62.95;100925.56;5056384;28;48143;-90
2022/05/16 03:26:23;;;;;;;;;10.00;7.00;;;;;21.70;63.94;100966.06;5038440;28;45407;-90
2022/05/16 03:28:49;;;;;;;;;8.00;7.00;;;;;21.72;63.75;100972.22;5056601;28;45311;-90
2022/05/16 03:31:14;;;;;;;;;6.67;6.67;;;;;21.36;63.63;100922.88;5039788;28;45512;-89
2022/05/16 03:33:39;;;;;;;;;6.67;6.67;;;;;21.64;63.79;100972.06;5058776;28;45267;-90
2022/05/16 03:36:05;;;;;;;;;9.67;8.00;;;;;21.46;63.68;100944.66;5041393;28;45288;-88
2022/05/16 03:41:14;;;;;;;;;12.00;7.00;;;;;21.69;63.51;100965.22;5047313;28;45381;-89
2022/05/16 03:43:41;;;;;;;;;8.00;8.00;;;;;21.48;63.74;100938.09;5039347;28;45288;-89
2022/05/16 03:46:07;;;;;;;;;9.67;7.00;;;;;21.39;63.20;100930.72;5050223;28;45514;-89
2022/05/16 03:48:33;;;;;;;;;10.33;8.67;;;;;21.34;63.72;100943.84;5062792;28;45358;-90
2022/05/16 03:51:00;;;;;;;;;8.33;8.33;;;;;21.17;63.84;100929.03;5074128;28;45619;-90
2022/05/16 03:53:25;;;;;;;;;8.33;7.67;;;;;21.17;64.02;100934.44;5069258;28;45555;-90
2022/05/16 03:55:51;;;;;;;;;8.33;8.00;;;;;21.29;64.10;100974.06;5041716;28;45901;-89
2022/05/16 03:58:16;;;;;;;;;7.00;7.00;;;;;21.47;64.15;100997.94;5052568;28;45441;-90
2022/05/16 04:00:42;;;;;;;;;10.00;9.00;;;;;21.10;63.86;100943.22;5061512;28;45345;-90
2022/05/16 04:03:07;;;;;;;;;12.33;8.33;;;;;21.27;63.71;100972.47;5073809;28;45523;-90
2022/05/16 04:05:32;;;;;;;;;9.67;8.00;;;;;21.43;63.81;101015.44;5063218;28;45422;-90
2022/05/16 04:07:58;;;;;;;;;6.00;6.00;;;;;21.15;63.63;100977.06;5041522;28;45445;-90
2022/05/16 04:10:24;;;;;;;;;12.33;10.33;;;;;21.33;63.74;101009.91;5059218;28;45339;-91
2022/05/16 04:12:50;;;;;;;;;13.67;12.00;;;;;21.02;64.09;100966.41;5037561;28;47275;-90
2022/05/16 04:15:16;;;;;;;;;10.00;8.67;;;;;21.17;63.85;100996.78;5072868;28;45366;-90
2022/05/16 04:17:42;;;;;;;;;8.33;8.33;;;;;21.08;64.27;100979.44;5051972;28;45576;-90
2022/05/16 04:20:09;;;;;;;;;10.33;9.00;;;;;21.07;64.43;100975.03;5069939;28;45394;-90
2022/05/16 04:22:35;;;;;;;;;10.67;8.67;;;;;20.94;64.22;100947.22;5058579;28;45378;-90
2022/05/16 04:25:00;;;;;;;;;9.33;9.00;;;;;21.45;64.07;101035.16;5045112;28;45808;-91
2022/05/16 04:27:26;;;;;;;;;10.00;9.67;;;;;21.34;64.19;101025.19;5057074;28;45423;-90
2022/05/16 04:29:51;;;;;;;;;12.00;9.33;;;;;21.15;64.33;101001.47;5067443;28;45421;-90
2022/05/16 04:32:16;;;;;;;;;10.67;9.33;;;;;21.26;64.39;101014.13;5072849;28;46192;-90
2022/05/16 04:34:42;;;;;;;;;9.67;9.00;;;;;21.50;64.09;101051.91;5066126;28;45457;-90
2022/05/16 04:37:07;;;;;;;;;9.67;9.00;;;;;21.29;64.17;101028.28;5060110;28;45454;-90
2022/05/16 04:39:32;;;;;;;;;12.67;11.33;;;;;21.53;64.21;101073.31;5049988;28;45489;-89
2022/05/16 04:44:42;;;;;;;;;7.00;7.00;;;;;21.37;63.75;101073.72;5076492;28;45444;-90
2022/05/16 04:47:09;;;;;;;;;9.67;9.00;;;;;21.23;64.50;101055.91;5068042;28;45657;-90
2022/05/16 04:49:35;;;;;;;;;4.33;4.33;;;;;21.46;64.37;101094.69;5064419;28;45338;-91
2022/05/16 04:52:01;;;;;;;;;10.67;9.33;;;;;21.49;64.23;101118.84;5065199;28;47475;-91
2022/05/16 04:54:27;;;;;;;;;9.67;8.00;;;;;21.50;64.31;101120.56;5051950;28;45753;-91
2022/05/16 04:56:59;;;;;;;;;9.67;8.33;;;;;21.53;64.35;101135.72;5062111;28;45374;-91
2022/05/16 04:59:28;;;;;;;;;11.00;10.33;;;;;21.54;63.91;101134.75;5071127;28;45518;-91
2022/05/16 05:01:54;;;;;;;;;11.67;10.00;;;;;21.41;63.71;101118.63;5047528;28;46274;-91
2022/05/16 05:04:20;;;;;;;;;13.33;12.67;;;;;21.53;63.54;101153.84;5044193;28;45372;-92
2022/05/16 05:06:46;;;;;;;;;12.67;12.67;;;;;21.18;63.65;101108.78;5061551;28;45547;-89
2022/05/16 05:09:13;;;;;;;;;15.33;11.33;;;;;21.45;63.26;101154.50;5039776;28;45453;-89
2022/05/16 05:14:32;;;;;;;;;15.33;14.00;;;;;21.25;63.19;101127.13;4992196;28;45336;-89
2022/05/16 05:17:04;;;;;;;;;15.00;14.33;;;;;21.42;63.72;101152.91;4988897;28;45867;-89
2022/05/16 05:19:30;;;;;;;;;16.00;14.33;;;;;21.44;63.49;101155.47;4977531;28;45487;-85
2022/05/16 05:21:56;;;;;;;;;13.67;12.67;;;;;21.23;62.57;101117.41;4976555;28;45570;-88
2022/05/16 05:24:21;;;;;;;;;14.67;13.00;;;;;21.19;63.18;101116.81;4982999;28;45760;-88
2022/05/16 05:26:47;;;;;;;;;14.33;11.33;;;;;21.38;62.58;101139.69;4979024;28;45559;-86
2022/05/16 05:29:16;;;;;;;;;14.00;14.00;;;;;21.34;62.92;101130.94;4982885;28;45535;-91
2022/05/16 05:31:42;;;;;;;;;13.33;13.00;;;;;21.41;62.27;101134.03;4977429;28;46318;-86
2022/05/16 05:34:09;;;;;;;;;14.67;13.67;;;;;21.60;62.12;101176.75;4977336;28;45464;-82
2022/05/16 05:36:34;;;;;;;;;13.00;12.00;;;;;21.58;62.11;101176.88;4975844;28;45490;-80
2022/05/16 05:39:01;;;;;;;;;12.67;12.33;;;;;21.42;62.15;101146.59;4985302;28;45463;-85
2022/05/16 05:41:26;;;;;;;;;14.67;11.67;;;;;21.66;61.61;101187.97;4995244;28;46232;-82
2022/05/16 05:43:52;;;;;;;;;11.00;9.00;;;;;21.65;61.07;101191.66;4993104;28;45803;-81
2022/05/16 05:46:17;;;;;;;;;9.33;9.33;;;;;21.60;61.61;101179.47;4995673;28;45490;-83
2022/05/16 05:48:43;;;;;;;;;13.00;10.33;;;;;21.68;61.10;101185.97;4995682;28;45535;-81
2022/05/16 05:51:09;;;;;;;;;11.67;10.00;;;;;21.73;60.79;101203.72;4991162;28;46096;-81
2022/05/16 05:53:37;;;;;;;;;11.33;10.67;;;;;21.72;60.95;101202.84;5037094;28;45485;-81
2022/05/16 05:56:04;;;;;;;;;13.33;10.67;;;;;21.75;60.51;101220.72;5043886;28;45384;-81
2022/05/16 05:58:30;;;;;;;;;15.33;13.00;;;;;21.69;60.66;101206.69;5044656;28;45608;-81
2022/05/16 06:00:55;;;;;;;;;14.33;11.33;;;;;21.50;60.38;101182.09;5016253;28;46256;-81
2022/05/16 06:03:21;;;;;;;;;15.33;14.33;;;;;21.59;60.54;101203.03;5042038;28;45513;-81
2022/05/16 06:05:46;;;;;;;;;11.67;11.67;;;;;21.70;60.12;101222.00;5051284;28;45453;-81
2022/05/16 06:08:12;;;;;;;;;8.00;8.00;;;;;21.74;60.39;101236.16;5019325;28;45482;-81
2022/05/16 06:10:37;;;;;;;;;15.67;9.67;;;;;21.82;60.03;101246.34;5044711;28;45914;-79
2022/05/16 06:13:03;;;;;;;;;13.67;12.67;;;;;21.83;60.43;101251.66;5018343;28;45591;-81
2022/05/16 06:15:28;;;;;;;;;14.00;10.33;;;;;21.82;59.98;101266.25;5036500;28;45501;-80
2022/05/16 06:17:53;;;;;;;;;11.67;11.67;;;;;21.84;59.90;101269.66;5042057;28;45492;-79
2022/05/16 06:20:19;;;;;;;;;13.33;10.00;;;;;21.74;60.10;101251.56;5036196;28;45517;-79
2022/05/16 06:22:44;;;;;;;;;35.67;31.33;;;;;21.78;59.74;101259.34;5046879;28;45398;-80
2022/05/16 06:25:33;;;;;;;;;12.00;11.67;;;;;21.91;59.44;101268.19;5040551;28;45382;-79
2022/05/16 06:28:04;;;;;;;;;12.33;12.33;;;;;21.85;58.83;101259.69;5037867;28;45521;-79
2022/05/16 06:30:31;;;;;;;;;11.67;10.33;;;;;21.92;59.00;101271.75;5037174;28;45564;-79
2022/05/16 06:32:56;;;;;;;;;12.00;11.00;;;;;21.92;58.84;101280.75;5025427;28;46402;-79
2022/05/16 06:35:22;;;;;;;;;9.67;9.67;;;;;21.95;58.45;101282.34;5039470;28;45644;-79
2022/05/16 06:37:47;;;;;;;;;12.33;10.33;;;;;21.96;59.07;101281.38;5042976;28;45473;-79
2022/05/16 06:40:14;;;;;;;;;10.33;9.67;;;;;22.03;58.87;101289.84;5038224;28;45453;-79
2022/05/16 06:42:40;;;;;;;;;10.33;6.33;;;;;21.89;57.88;101274.72;5042390;28;45596;-79
2022/05/16 06:45:07;;;;;;;;;11.33;9.00;;;;;21.95;58.38;101284.22;5059290;28;45497;-78
2022/05/16 06:47:32;;;;;;;;;11.00;8.00;;;;;21.92;58.25;101288.91;5063096;28;45459;-78
2022/05/16 06:49:57;;;;;;;;;10.33;9.67;;;;;22.07;57.89;101315.75;5059226;28;46051;-78
2022/05/16 06:52:24;;;;;;;;;10.33;8.67;;;;;22.09;58.07;101322.78;5069737;28;45880;-79
2022/05/16 06:54:50;;;;;;;;;12.00;9.00;;;;;22.08;57.67;101323.78;5057855;28;45848;-78
2022/05/16 06:57:15;;;;;;;;;10.67;10.00;;;;;22.13;57.60;101331.56;5067865;28;45958;-78
2022/05/16 06:59:41;;;;;;;;;10.33;8.67;;;;;22.16;57.31;101336.72;5049688;28;46082;-79
2022/05/16 07:02:07;;;;;;;;;9.67;8.67;;;;;22.17;56.87;101334.84;5064589;28;45419;-78
2022/05/16 07:04:32;;;;;;;;;10.33;9.00;;;;;22.10;56.23;101323.63;5067600;28;45323;-83
2022/05/16 07:06:58;;;;;;;;;13.00;8.00;;;;;22.20;56.46;101351.78;5057927;28;45391;-86
2022/05/16 07:09:23;;;;;;;;;4.33;3.00;;;;;22.05;55.89;101317.72;5056317;28;45689;-84
2022/05/16 07:11:49;;;;;;;;;8.00;8.00;;;;;22.22;55.83;101348.94;5066747;28;45314;-82
2022/05/16 07:14:14;;;;;;;;;6.67;6.67;;;;;22.06;55.96;101328.47;5038068;28;45351;-83
2022/05/16 07:16:40;;;;;;;;;9.67;9.33;;;;;22.26;55.89;101362.13;5057013;28;45334;-84
2022/05/16 07:19:06;;;;;;;;;31.00;20.00;;;;;22.32;56.07;101368.94;5056769;28;46069;-85
2022/05/16 07:21:32;;;;;;;;;9.67;8.00;;;;;22.27;55.63;101353.00;5056532;28;45311;-83
2022/05/16 07:23:57;;;;;;;;;6.67;6.67;;;;;22.39;55.29;101363.84;5056666;28;45598;-84
2022/05/16 07:29:26;;;;;;;;;9.00;7.00;;;;;22.49;54.57;101381.09;4994367;28;45852;-84
2022/05/16 07:31:52;;;;;;;;;9.33;8.33;;;;;22.50;54.37;101375.53;4996875;28;48191;-84
2022/05/16 07:34:18;;;;;;;;;9.33;9.00;;;;;22.55;54.77;101386.88;4994807;28;45348;-84
2022/05/16 07:36:43;;;;;;;;;6.00;6.00;;;;;22.49;54.13;101372.94;5006719;28;45439;-84
2022/05/16 07:39:08;;;;;;;;;10.33;7.00;;;;;22.54;54.02;101374.25;4993486;28;47251;-84
2022/05/16 07:41:34;;;;;;;;;50.67;33.67;;;;;22.55;53.91;101381.44;4993865;28;47572;-84
2022/05/16 07:43:59;;;;;;;;;7.00;7.00;;;;;22.58;54.40;101390.31;4986251;28;45508;-85
2022/05/16 07:46:24;;;;;;;;;6.00;6.00;;;;;22.57;53.53;101397.63;4986171;28;45524;-85
2022/05/16 07:48:50;;;;;;;;;8.33;8.33;;;;;22.56;53.24;101398.59;4984539;28;46440;-84
2022/05/16 07:51:17;;;;;;;;;8.67;7.33;;;;;22.59;53.46;101406.47;4989496;28;45491;-90
2022/05/16 07:53:42;;;;;;;;;8.33;7.00;;;;;22.62;52.81;101403.53;4964720;28;45380;-89
2022/05/16 07:56:09;;;;;;;;;8.67;7.00;;;;;22.64;53.35;101401.56;4994082;28;46199;-89
2022/05/16 07:58:35;;;;;;;;;12.67;11.00;;;;;22.67;53.67;101409.44;4995148;28;46101;-89
2022/05/16 08:01:01;;;;;;;;;6.00;6.00;;;;;22.74;52.94;101407.91;5030927;28;45870;-89
2022/05/16 08:03:28;;;;;;;;;8.00;7.67;;;;;22.72;52.81;101406.31;5018801;28;45439;-89
2022/05/16 08:05:54;;;;;;;;;8.00;8.00;;;;;22.60;52.68;101385.63;5050297;28;45791;-89
2022/05/16 08:11:03;;;;;;;;;9.00;6.33;;;;;22.85;52.73;101420.63;5053356;28;45414;-80
2022/05/16 08:13:30;;;;;;;;;6.67;6.67;;;;;22.90;52.36;101426.50;5035709;28;45543;-80
2022/05/16 08:15:56;;;;;;;;;8.00;7.00;;;;;22.99;51.90;101424.03;5035761;28;45546;-80
2022/05/16 08:18:21;;;;;;;;;8.00;5.00;;;;;23.03;51.68;101426.34;5035241;28;45537;-80
2022/05/16 08:20:47;;;;;;;;;8.00;6.33;;;;;23.00;51.87;101417.59;5033901;28;45331;-80
2022/05/16 08:23:21;;;;;;;;;8.00;8.00;;;;;22.91;51.76;101411.91;5035560;28;45433;-80
2022/05/16 08:25:47;;;;;;;;;9.67;7.67;;;;;23.03;51.84;101423.63;5038084;28;45496;-79
2022/05/16 08:28:13;;;;;;;;;9.00;7.00;;;;;23.09;51.47;101430.41;5038579;28;45541;-80
2022/05/16 08:30:39;;;;;;;;;9.00;7.67;;;;;22.83;50.89;101405.41;5020486;28;45340;-80
2022/05/16 08:33:04;;;;;;;;;7.67;7.00;;;;;23.01;51.26;101435.63;5039321;28;45432;-89
2022/05/16 08:35:31;;;;;;;;;5.00;5.00;;;;;23.03;51.07;101439.09;5039324;28;45465;-89
2022/05/16 08:41:03;;;;;;;;;7.00;6.00;;;;;23.02;50.70;101434.66;5038990;28;45407;-88
2022/05/16 08:43:52;;;;;;;;;6.33;6.33;;;;;23.04;51.19;101436.25;5050230;28;45276;-89
2022/05/16 08:46:32;;;;;;;;;6.67;5.33;;;;;22.91;50.72;101416.50;5059694;28;45508;-89
2022/05/16 08:49:07;;;;;;;;;6.33;5.00;;;;;23.01;50.96;101438.34;5058946;28;45948;-89
2022/05/16 08:51:33;;;;;;;;;5.00;5.00;;;;;22.96;50.60;101417.81;5058905;28;45489;-89
2022/05/16 08:54:08;;;;;;;;;22.67;15.00;;;;;23.16;50.71;101447.94;5040709;28;45388;-89
2022/05/16 08:56:36;;;;;;;;;6.33;5.67;;;;;23.13;50.16;101446.34;5064975;28;45311;-89
2022/05/16 08:59:06;;;;;;;;;6.00;6.00;;;;;23.06;50.68;101442.41;5079242;28;45432;-89
2022/05/16 09:01:40;;;;;;;;;8.33;6.67;;;;;23.14;50.00;101463.50;5078980;28;45442;-80
2022/05/16 09:04:32;;;;;;;;;7.67;6.67;;;;;23.12;49.77;101476.38;5060594;28;45575;-80
2022/05/16 09:07:25;;;;;;;;;10.33;8.33;;;;;23.14;50.08;101477.13;5056124;28;45354;-80
2022/05/16 09:10:07;;;;;;;;;7.67;6.33;;;;;23.15;50.22;101474.25;5060003;28;46325;-79
2022/05/16 09:12:44;;;;;;;;;6.00;5.00;;;;;23.12;49.28;101477.22;5057945;28;45851;-80
2022/05/16 09:15:26;;;;;;;;;5.67;5.67;;;;;23.17;49.73;101474.13;5058163;28;45421;-80
2022/05/16 09:18:15;;;;;;;;;8.00;5.00;;;;;23.21;49.28;101478.31;5058036;28;45871;-80
2022/05/16 09:21:01;;;;;;;;;8.67;5.33;;;;;23.24;49.53;101480.75;5039456;28;47418;-80
2022/05/16 09:23:34;;;;;;;;;5.33;5.33;;;;;23.10;49.19;101457.47;5057864;28;45384;-80
2022/05/16 09:26:33;;;;;;;;;6.33;6.00;;;;;23.21;49.35;101452.97;5058073;28;45744;-80
2022/05/16 09:29:26;;;;;;;;;4.33;4.33;;;;;23.80;48.54;101496.78;5058116;28;45413;-80
2022/05/16 09:31:56;;;;;;;;;3.67;3.67;;;;;24.33;48.01;101487.56;5046550;28;45658;-80
2022/05/16 09:34:21;;;;;;;;;3.67;3.67;;;;;25.44;46.21;101491.00;5057348;28;45450;-80
2022/05/16 09:36:49;;;;;;;;;4.00;4.00;;;;;26.32;44.07;101494.38;5056545;28;45610;-80
2022/05/16 09:39:21;;;;;;;;;4.00;4.00;;;;;27.21;42.39;101479.13;5058170;28;45405;-80
2022/05/16 09:42:14;;;;;;;;;30.67;26.67;;;;;28.29;40.79;101494.22;5057568;28;45773;-80
2022/05/16 09:44:46;;;;;;;;;5.67;4.67;;;;;28.51;39.35;101478.22;5057645;28;45386;-80
2022/05/16 09:47:41;;;;;;;;;15.00;12.33;;;;;29.28;39.16;101491.75;5057476;28;45588;-80
2022/05/16 09:50:24;;;;;;;;;12.00;11.00;;;;;29.84;37.51;101481.75;5057652;28;45413;-81
2022/05/16 09:53:09;;;;;;;;;6.00;4.67;;;;;30.92;35.96;101456.31;5061724;27;47508;-81
2022/05/16 09:55:51;;;;;;;;;6.00;5.00;;;;;32.18;32.62;101504.41;5078072;28;45389;-81
2022/05/16 09:58:24;;;;;;;;;5.00;5.00;;;;;32.93;32.06;101488.59;5078049;27;45676;-81
2022/05/16 10:01:20;;;;;;;;;7.00;5.67;;;;;33.48;31.74;101466.78;5078085;28;45460;-81
2022/05/16 10:03:49;;;;;;;;;3.67;3.67;;;;;34.77;28.69;101480.06;4994402;28;45663;-81
2022/05/16 10:06:33;;;;;;;;;5.67;4.67;;;;;36.46;27.07;101510.09;4994918;28;45495;-81
2022/05/16 10:09:11;;;;;;;;;4.33;4.33;;;;;38.09;25.18;101497.34;4995186;28;45442;-81
2022/05/16 10:11:38;;;;;;;;;3.67;3.67;;;;;39.60;23.18;101504.91;4995393;28;45443;-82
2022/05/16 10:14:04;;;;;;;;;3.00;3.00;;;;;40.45;21.78;101511.84;4994622;28;46121;-81
2022/05/16 10:16:32;;;;;;;;;3.00;1.67;;;;;40.04;21.83;101497.84;4994823;28;45416;-81
2022/05/16 10:19:03;;;;;;;;;4.67;3.33;;;;;37.90;23.23;101507.59;4994833;28;45538;-82
2022/05/16 10:21:35;;;;;;;;;3.67;3.00;;;;;36.62;25.07;101517.13;4995325;28;45391;-80
2022/05/16 10:24:03;;;;;;;;;2.67;2.67;;;;;39.29;22.87;101498.53;4994744;28;45802;-81
2022/05/16 10:26:34;;;;;;;;;3.00;3.00;;;;;41.61;20.03;101502.25;4994685;28;45389;-80
2022/05/16 10:29:10;;;;;;;;;2.00;2.00;;;;;43.16;18.49;101498.34;4995015;28;45548;-80
2022/05/16 10:34:41;;;;;;;;;1.33;1.33;;;;;45.80;16.50;101507.22;4994360;28;45897;-80
2022/05/16 10:37:07;;;;;;;;;4.00;2.33;;;;;46.56;14.59;101510.03;4994613;28;45288;-81
2022/05/16 10:39:35;;;;;;;;;2.00;2.00;;;;;46.06;15.95;101502.34;4998701;28;45358;-81
2022/05/16 10:42:06;;;;;;;;;2.00;2.00;;;;;46.92;14.81;101499.38;5057038;28;45410;-82
2022/05/16 10:44:46;;;;;;;;;2.33;2.33;;;;;47.30;14.64;101480.72;5076365;28;46376;-81
2022/05/16 10:47:23;;;;;;;;;1.00;1.00;;;;;47.72;14.16;101507.44;5076231;28;45568;-81
2022/05/16 10:50:01;;;;;;;;;2.67;2.00;;;;;47.99;13.63;101503.19;5076471;28;45512;-82
2022/05/16 10:52:38;;;;;;;;;1.33;1.33;;;;;48.19;12.99;101516.25;5077045;28;45445;-81
2022/05/16 10:55:04;;;;;;;;;4.33;1.33;;;;;48.22;13.02;101498.69;5076718;27;45381;-81
2022/05/16 10:57:51;;;;;;;;;3.00;2.00;;;;;48.00;13.10;101510.50;5076796;28;45342;-81
2022/05/16 11:00:20;;;;;;;;;3.00;3.00;;;;;47.23;13.31;101518.91;5076638;28;45496;-82
2022/05/16 11:02:57;;;;;;;;;2.00;1.00;;;;;46.23;14.84;101521.72;5076871;27;45519;-81
2022/05/16 11:05:39;;;;;;;;;1.33;1.33;;;;;44.48;15.40;101497.53;5076025;28;45447;-82
2022/05/16 11:08:42;;;;;;;;;1.00;1.00;;;;;42.37;17.52;101513.72;5076545;28;45573;-81
2022/05/16 11:11:28;;;;;;;;;1.00;1.00;;;;;40.04;19.25;101513.72;5073162;27;45556;-81
2022/05/16 11:14:18;;;;;;;;;1.00;1.00;;;;;38.42;20.92;101505.31;5056008;28;45414;-81
2022/05/16 11:16:44;;;;;;;;;2.67;2.67;;;;;37.61;21.57;101514.75;5055689;28;45446;-82
2022/05/16 11:19:24;;;;;;;;;1.00;1.00;;;;;36.93;22.74;101519.06;5055933;28;45283;-81
2022/05/16 11:22:14;;;;;;;;;5.00;4.00;;;;;36.42;23.12;101502.44;5070118;28;45480;-81
2022/05/16 11:24:57;;;;;;;;;12.67;12.67;;;;;36.18;23.43;101523.44;5076393;28;45385;-81
2022/05/16 11:27:32;;;;;;;;;4.33;2.67;;;;;35.56;24.02;101517.28;5076096;28;46176;-81
2022/05/16 11:30:03;;;;;;;;;3.00;3.00;;;;;35.16;23.41;101523.66;5075788;28;45385;-81
2022/05/16 11:32:49;;;;;;;;;2.67;2.67;;;;;34.61;24.39;101495.19;5076267;27;45425;-81
2022/05/16 11:35:24;;;;;;;;;9.33;5.67;;;;;34.39;25.09;101516.56;5076540;27;45612;-81
2022/05/16 11:38:14;;;;;;;;;1.00;1.00;;;;;34.03;25.64;101512.09;5057940;28;47153;-81
2022/05/16 11:41:03;;;;;;;;;2.33;2.33;;;;;33.68;25.44;101501.00;5075986;28;45287;-81
2022/05/16 11:43:32;;;;;;;;;1.33;1.00;;;;;33.46;26.40;101497.41;5075772;28;45517;-80
2022/05/16 11:46:27;;;;;;;;;3.67;2.00;;;;;33.46;26.29;101502.06;5076112;27;45365;-80
2022/05/16 11:49:18;;;;;;;;;3.00;3.00;;;;;33.30;26.74;101497.69;5075923;27;45420;-81
2022/05/16 11:52:05;;;;;;;;;2.00;2.00;;;;;33.20;26.34;101503.53;5075722;28;45491;-80
2022/05/16 11:54:44;;;;;;;;;2.00;2.00;;;;;33.07;26.27;101495.97;5057768;28;45636;-81
2022/05/16 12:02:58;;;;;;;;;3.00;1.67;;;;;32.59;27.59;101492.84;5079311;28;45407;-81
2022/05/16 12:05:25;;;;;;;;;1.00;1.00;;;;;32.46;27.22;101495.44;5079500;27;45365;-80